Veurne, Belgium
Current Conditions -  °F | °C
As of 9:55 AM on Saturday 25 Oct 2014 (Local Time) from EBFN Reporting Station
Haze Haze  
Wind Chill: 55°   Ceiling: 3000
Heat Index: 55°   Visibility: 4mi
Dew Point: 55°   Wind: 6mph
Humidity: 100%   Direction: 240°WSW
Pressure: 30.06"   Gusts: NA
Location:  51.07°N, 2.66°E
Report Text: EBFN 250755Z 24005KT 7000 BR FEW014 BKN030 13/13 Q1018 WHT
Loading
Personal Weather Stations






























Interactive Weather Map
Tropical Storm Tracking
New forecast layout! Learn more

10-Day Weather Forecast

Advertisements
Track Severe Weather on mobile